Weather History for KGYI - March, 2014

Change the Weather History Date:

Saturday, March 29, 2014

  Actual Average (KDFW) Record (KDFW)
Temperature  
Mean Temperature 54 °F 61 °F  
Max Temperature 71 °F 72 °F 88 °F (1967)
Min Temperature 38 °F 50 °F 28 °F (1944)
Degree Days  
Heating Degree Days 10 6  
Month to date heating degree days 251  
Since 1 July heating degree days 2183  
Cooling Degree Days 0 2  
Month to date cooling degree days 31  
Year to date cooling degree days 38  
Growing Degree Days 4 (Base 50)    
Moisture  
Dew Point 34 °F    
Average Humidity 50    
Maximum Humidity 88    
Minimum Humidity 21    
Precipitation  
Precipitation 0.00 in 0.11 in 2.99 in (1958)
Month to date precipitation 3.28  
Year to date precipitation 8.07  
Snow  
Snow 0.00 in 0.00 in 2.00 in (1937)
Month to date snowfall 0.2  
Since 1 July snowfall 1.2  
Snow Depth -    
Sea Level Pressure  
Sea Level Pressure 30.22 in    
Wind  
Wind Speed 6 mph (North)    
Max Wind Speed 15 mph    
Max Gust Speed 22 mph    
Visibility 10 miles    
Events      
T = Trace of Precipitation, MM = Missing Value Source: NWS Daily Summary

Daily Weather History Graph

Daily Weather History Graph

Search for Another Location

Airport or City:

Trip Planner

Search our weather history database for the weather conditions in past years. The results will help you decide how hot, cold, wet, or windy it might be!

Date:

Astronomy

Mar. 29, 2014 Rise Set
Actual Time 7:18 AM CDT 7:45 PM CDT
Civil Twilight 6:53 AM CDT 8:10 PM CDT
Nautical Twilight 6:23 AM CDT 8:39 PM CDT
Astronomical Twilight 5:54 AM CDT 9:09 PM CDT
Moon 6:24 AM CDT (3/29) 6:53 PM CDT (3/29)
Length of Visible Light 13h 16m
Length of Day
12h 26m
Waning Crescent, 2% of the Moon is Illuminated
Mar 29
Waning Crescent
Mar 30
New
Apr 7
First Quarter
Apr 15
Full
Apr 22
Last Quarter

Hourly Weather History & Observations

Time (CDT) Temp. Windchill Dew Point Humidity Pressure Visibility Wind Dir Wind Speed Gust Speed Precip Events Conditions
12:15 AM 50.0 °F - 39.2 °F 66% 30.11 in 10.0 mi North 8.1 mph - N/A   Clear
12:35 AM 48.6 °F - 39.2 °F 70% 30.11 in 10.0 mi North 6.9 mph - N/A   Clear
1:15 AM 46.4 °F 43.5 °F 38.5 °F 74% 30.11 in 10.0 mi NW 5.8 mph - N/A   Clear
1:35 AM 45.5 °F 43.2 °F 38.3 °F 76% 30.13 in 10.0 mi NW 4.6 mph - N/A   Clear
1:55 AM 45.3 °F 43.0 °F 38.3 °F 76% 30.13 in 10.0 mi NNW 4.6 mph - N/A   Clear
2:15 AM 44.8 °F 42.4 °F 37.8 °F 76% 30.13 in 10.0 mi NNW 4.6 mph - N/A   Clear
2:35 AM 44.6 °F - 37.8 °F 77% 30.13 in 10.0 mi Calm Calm - N/A   Clear
2:55 AM 45.3 °F - 38.3 °F 76% 30.13 in 10.0 mi Calm Calm - N/A   Clear
3:15 AM 44.6 °F - 37.9 °F 77% 30.13 in 10.0 mi Calm Calm - N/A   Clear
3:35 AM 44.6 °F - 37.8 °F 77% 30.14 in 10.0 mi Calm Calm - N/A   Clear
3:55 AM 43.9 °F - 37.8 °F 79% 30.14 in 10.0 mi Calm Calm - N/A   Clear
4:15 AM 43.9 °F 42.3 °F 37.0 °F 77% 30.16 in 10.0 mi NNE 3.5 mph - N/A   Clear
4:35 AM 43.9 °F - 37.0 °F 77% 30.17 in 10.0 mi Calm Calm - N/A   Clear
4:55 AM 42.6 °F 40.9 °F 36.7 °F 79% 30.17 in 10.0 mi NNW 3.5 mph - N/A   Clear
5:15 AM 42.1 °F 39.2 °F 36.7 °F 81% 30.18 in 10.0 mi NW 4.6 mph - N/A   Clear
5:35 AM 41.0 °F 38.0 °F 36.3 °F 83% 30.19 in 10.0 mi West 4.6 mph - N/A   Clear
5:55 AM 40.1 °F 36.9 °F 36.1 °F 86% 30.20 in 7.0 mi West 4.6 mph - N/A   Clear
6:15 AM 39.7 °F 34.9 °F 35.6 °F 85% 30.21 in 7.0 mi WNW 6.9 mph - N/A   Clear
6:35 AM 39.9 °F 35.8 °F 36.0 °F 86% 30.22 in 7.0 mi WNW 5.8 mph - N/A   Clear
6:55 AM 38.8 °F 34.6 °F 35.4 °F 88% 30.23 in 7.0 mi WNW 5.8 mph - N/A   Clear
7:15 AM 38.8 °F 34.6 °F 35.6 °F 88% 30.24 in 7.0 mi NW 5.8 mph - N/A   Clear
7:35 AM 39.2 °F 34.2 °F 35.8 °F 88% 30.24 in 5.0 mi NW 6.9 mph - N/A   Clear
7:55 AM 40.6 °F 37.5 °F 36.5 °F 85% 30.25 in 5.0 mi NW 4.6 mph - N/A   Clear
8:15 AM 42.4 °F 38.8 °F 37.8 °F 83% 30.25 in 7.0 mi NNW 5.8 mph - N/A   Clear
8:35 AM 45.3 °F 41.1 °F 39.2 °F 79% 30.26 in 7.0 mi North 8.1 mph - N/A   Clear
8:55 AM 47.3 °F - 39.4 °F 74% 30.26 in 7.0 mi North 11.5 mph - N/A   Clear
9:15 AM 49.3 °F - 39.7 °F 70% 30.27 in 7.0 mi North 12.7 mph 17.3 mph N/A   Clear
9:35 AM 51.3 °F - 39.9 °F 65% 30.27 in 10.0 mi North 15.0 mph 20.7 mph N/A   Clear
9:55 AM 52.7 °F - 39.2 °F 60% 30.28 in 10.0 mi North 13.8 mph 21.9 mph N/A   Clear
10:15 AM 54.5 °F - 39.4 °F 57% 30.28 in 10.0 mi NNE 11.5 mph - N/A   Clear
10:35 AM 55.6 °F - 39.2 °F 54% 30.29 in 10.0 mi NNE 10.4 mph - N/A   Clear
10:55 AM 57.6 °F - 38.7 °F 49% 30.30 in 10.0 mi North 12.7 mph - N/A   Clear
11:15 AM 59.7 °F - 38.7 °F 46% 30.30 in 10.0 mi North 8.1 mph - N/A   Clear
11:35 AM 60.8 °F - 39.2 °F 45% 30.30 in 10.0 mi North 5.8 mph - N/A   Clear
11:55 AM 62.6 °F - 38.3 °F 41% 30.30 in 10.0 mi North 8.1 mph - N/A   Clear
12:15 PM 63.3 °F - 38.7 °F 40% 30.30 in 10.0 mi NNW 5.8 mph - N/A   Clear
12:35 PM 64.6 °F - 36.1 °F 35% 30.30 in 10.0 mi North 9.2 mph - N/A   Clear
12:55 PM 65.8 °F - 32.9 °F 29% 30.30 in 10.0 mi North 8.1 mph - N/A   Clear
1:15 PM 67.3 °F - 33.4 °F 29% 30.30 in 10.0 mi NNW 5.8 mph - N/A   Clear
1:35 PM 67.5 °F - 35.6 °F 31% 30.29 in 10.0 mi NW 3.5 mph - N/A   Clear
1:55 PM 68.7 °F - 34.3 °F 28% 30.28 in 10.0 mi NNW 8.1 mph - N/A   Clear
2:15 PM 68.2 °F - 33.8 °F 28% 30.27 in 10.0 mi North 4.6 mph - N/A   Clear
2:35 PM 68.7 °F - 32.5 °F 26% 30.27 in 10.0 mi WNW 5.8 mph - N/A   Clear
2:55 PM 69.1 °F - 33.1 °F 26% 30.26 in 10.0 mi North 5.8 mph - N/A   Clear
3:15 PM 69.6 °F - 31.1 °F 24% 30.25 in 10.0 mi North 3.5 mph - N/A   Clear
3:35 PM 70.7 °F - 32.2 °F 24% 30.23 in 10.0 mi WNW 9.2 mph - N/A   Clear
3:55 PM 70.5 °F - 30.9 °F 23% 30.23 in 10.0 mi North 6.9 mph - N/A   Clear
4:15 PM 70.7 °F - 30.6 °F 23% 30.22 in 10.0 mi Calm Calm - N/A   Clear
4:35 PM 71.1 °F - 29.5 °F 21% 30.22 in 10.0 mi NNW 8.1 mph - N/A   Clear
4:55 PM 71.1 °F - 28.6 °F 21% 30.21 in 10.0 mi Calm Calm - N/A   Clear
5:15 PM 71.4 °F - 29.3 °F 21% 30.21 in 10.0 mi North 4.6 mph - N/A   Clear
5:35 PM 70.7 °F - 29.3 °F 21% 30.21 in 10.0 mi Calm Calm - N/A   Clear
5:55 PM 70.9 °F - 28.4 °F 21% 30.20 in 10.0 mi NE 5.8 mph - N/A   Clear
6:15 PM 70.5 °F - 29.3 °F 22% 30.20 in 10.0 mi NE 5.8 mph - N/A   Clear
6:35 PM 69.8 °F - 29.1 °F 22% 30.20 in 10.0 mi ENE 5.8 mph - N/A   Clear
6:55 PM 68.4 °F - 30.0 °F 24% 30.20 in 10.0 mi NE 5.8 mph - N/A   Clear
7:15 PM 66.9 °F - 28.8 °F 24% 30.20 in 10.0 mi ENE 4.6 mph - N/A   Clear
7:35 PM 65.7 °F - 27.0 °F 23% 30.20 in 10.0 mi East 4.6 mph - N/A   Clear
7:55 PM 65.5 °F - 25.9 °F 22% 30.20 in 10.0 mi East 3.5 mph - N/A   Clear
8:15 PM 64.4 °F - 25.3 °F 23% 30.20 in 10.0 mi East 4.6 mph - N/A   Clear
8:35 PM 62.4 °F - 28.2 °F 27% 30.20 in 10.0 mi ESE 8.1 mph - N/A   Clear
8:55 PM 61.3 °F - 28.6 °F 29% 30.20 in 10.0 mi East 5.8 mph - N/A   Clear
9:15 PM 60.6 °F - 28.8 °F 30% 30.21 in 10.0 mi ESE 4.6 mph - N/A   Clear
9:35 PM 60.1 °F - 29.1 °F 31% 30.22 in 10.0 mi ESE 5.8 mph - N/A   Clear
9:55 PM 59.5 °F - 30.0 °F 33% 30.22 in 10.0 mi ESE 6.9 mph - N/A   Clear
10:15 PM 59.7 °F - 28.6 °F 31% 30.22 in 10.0 mi ESE 6.9 mph - N/A   Clear
10:35 PM 58.3 °F - 28.4 °F 32% 30.22 in 10.0 mi SE 8.1 mph - N/A   Clear
10:55 PM 58.1 °F - 28.9 °F 33% 30.22 in 10.0 mi SE 6.9 mph - N/A   Clear
11:15 PM 57.7 °F - 28.4 °F 33% 30.22 in 10.0 mi SE 8.1 mph - N/A   Clear
11:35 PM 57.4 °F - 28.0 °F 33% 30.23 in 10.0 mi SE 8.1 mph - N/A   Clear
11:55 PM 57.2 °F - 28.9 °F 34% 30.23 in 10.0 mi SE 9.2 mph - N/A   Clear